createdAt,value
2017-09-29T00:00:28.916Z,24.8
2017-09-29T00:01:30.337Z,24.8
2017-09-29T00:02:31.753Z,24.8
2017-09-29T00:03:33.170Z,24.8
2017-09-29T00:04:34.586Z,24.8
2017-09-29T00:05:36.019Z,24.7
2017-09-29T00:06:37.446Z,24.9
2017-09-29T00:07:38.864Z,24.7
2017-09-29T00:08:40.283Z,24.7
2017-09-29T00:09:41.700Z,24.9
2017-09-29T00:10:43.110Z,24.7
2017-09-29T00:11:44.536Z,24.8
2017-09-29T00:12:45.952Z,24.7
2017-09-29T00:13:47.375Z,24.8
2017-09-29T00:14:48.817Z,24.8
2017-09-29T00:15:50.237Z,24.8
2017-09-29T00:16:51.658Z,24.8
2017-09-29T00:17:53.076Z,24.7
2017-09-29T00:18:54.495Z,24.8
2017-09-29T00:19:55.915Z,24.7
2017-09-29T00:20:57.336Z,24.6
2017-09-29T00:21:58.754Z,24.8
2017-09-29T00:23:00.175Z,24.7
2017-09-29T00:24:01.596Z,24.7
2017-09-29T00:25:03.015Z,24.7
2017-09-29T00:26:04.435Z,24.7
2017-09-29T00:27:05.850Z,24.8
2017-09-29T00:28:07.274Z,24.7
2017-09-29T00:29:08.692Z,24.7
2017-09-29T00:30:10.110Z,24.7
2017-09-29T00:31:11.528Z,24.7
2017-09-29T00:32:12.948Z,24.7
2017-09-29T00:33:14.370Z,24.6
2017-09-29T00:34:15.784Z,24.7
2017-09-29T00:35:17.208Z,24.7
2017-09-29T00:36:18.628Z,24.7
2017-09-29T00:37:20.048Z,24.7
2017-09-29T00:38:21.462Z,24.6
2017-09-29T00:39:22.908Z,24.7
2017-09-29T00:40:24.329Z,24.7
2017-09-29T00:41:25.742Z,24.7
2017-09-29T00:42:27.160Z,24.6
2017-09-29T00:43:28.578Z,24.6
2017-09-29T00:44:29.997Z,24.6
2017-09-29T00:45:31.412Z,24.6
2017-09-29T00:46:32.833Z,24.6
2017-09-29T00:47:34.251Z,24.7
2017-09-29T00:48:35.671Z,24.6
2017-09-29T00:49:37.091Z,24.6
2017-09-29T00:50:38.513Z,24.6
2017-09-29T00:51:39.932Z,24.6
2017-09-29T00:52:41.352Z,24.6
2017-09-29T00:53:42.770Z,24.6
2017-09-29T00:54:44.188Z,24.6
2017-09-29T00:55:45.607Z,24.6
2017-09-29T00:56:47.024Z,24.6
2017-09-29T00:57:48.442Z,24.6
2017-09-29T00:58:49.867Z,24.7
2017-09-29T00:59:51.287Z,24.6
2017-09-29T01:00:52.706Z,24.6
2017-09-29T01:01:54.121Z,24.6
2017-09-29T01:02:55.541Z,24.6
2017-09-29T01:03:56.961Z,24.6
2017-09-29T01:04:58.378Z,24.6
2017-09-29T01:05:59.796Z,24.5
2017-09-29T01:07:01.213Z,24.5
2017-09-29T01:08:02.631Z,24.6
2017-09-29T01:09:18.828Z,24.5
2017-09-29T01:10:20.249Z,24.5
2017-09-29T01:11:21.680Z,24.5
2017-09-29T01:12:23.088Z,24.6
2017-09-29T01:13:24.505Z,24.6
2017-09-29T01:14:25.925Z,24.6
2017-09-29T01:15:27.343Z,24.5
2017-09-29T01:16:28.761Z,24.5
2017-09-29T01:17:30.182Z,24.6
2017-09-29T01:18:31.596Z,24.5
2017-09-29T01:19:33.014Z,24.6
2017-09-29T01:20:34.434Z,24.5
2017-09-29T01:21:35.853Z,24.5
2017-09-29T01:22:37.271Z,24.5
2017-09-29T01:23:38.689Z,24.6
2017-09-29T01:24:40.107Z,24.5
2017-09-29T01:25:41.524Z,24.6
2017-09-29T01:26:42.941Z,24.5
2017-09-29T01:27:44.359Z,24.5
2017-09-29T01:28:45.776Z,24.5
2017-09-29T01:29:47.194Z,24.5
2017-09-29T01:30:48.609Z,24.5
2017-09-29T01:31:50.031Z,24.5
2017-09-29T01:32:51.453Z,24.5
2017-09-29T01:33:52.871Z,24.5
2017-09-29T01:34:54.288Z,24.5
2017-09-29T01:35:55.705Z,24.5
2017-09-29T01:36:57.124Z,24.5
2017-09-29T01:37:58.541Z,24.5
2017-09-29T01:38:59.963Z,24.5
2017-09-29T01:40:01.376Z,24.5
2017-09-29T01:41:02.799Z,24.5
2017-09-29T01:42:04.220Z,24.6
2017-09-29T01:43:05.640Z,24.5
2017-09-29T01:44:07.059Z,24.5
2017-09-29T01:45:08.475Z,24.5
2017-09-29T01:46:09.896Z,24.5
2017-09-29T01:47:11.314Z,24.5
2017-09-29T01:48:12.730Z,24.5
2017-09-29T01:49:14.146Z,24.5
2017-09-29T01:50:15.567Z,24.5
2017-09-29T01:51:16.986Z,24.5
2017-09-29T01:52:18.406Z,24.5
2017-09-29T01:53:19.825Z,24.5
2017-09-29T01:54:21.245Z,24.5
2017-09-29T01:55:22.662Z,24.5
2017-09-29T01:56:24.080Z,24.5
2017-09-29T01:57:25.499Z,24.5
2017-09-29T01:58:26.916Z,24.5
2017-09-29T01:59:28.339Z,24.5
2017-09-29T02:00:29.755Z,24.5
2017-09-29T02:01:31.172Z,24.4
2017-09-29T02:02:32.598Z,24.5
2017-09-29T02:03:34.020Z,24.5
2017-09-29T02:04:35.448Z,24.5
2017-09-29T02:05:36.856Z,24.5
2017-09-29T02:06:38.275Z,24.5
2017-09-29T02:07:39.694Z,24.5
2017-09-29T02:08:41.110Z,24.5
2017-09-29T02:09:42.530Z,24.6
2017-09-29T02:10:43.948Z,24.5
2017-09-29T02:11:45.367Z,24.5
2017-09-29T02:12:46.787Z,24.5
2017-09-29T02:13:48.203Z,24.4
2017-09-29T02:14:49.622Z,24.5
2017-09-29T02:15:51.040Z,24.5
2017-09-29T02:16:52.458Z,24.5
2017-09-29T02:17:53.875Z,24.5
2017-09-29T02:18:55.291Z,24.5
2017-09-29T02:19:56.712Z,24.5
2017-09-29T02:20:58.129Z,24.5
2017-09-29T02:21:59.545Z,24.4
2017-09-29T02:23:00.962Z,24.5
2017-09-29T02:24:02.386Z,24.5
2017-09-29T02:25:03.803Z,24.5
2017-09-29T02:26:05.222Z,24.5
2017-09-29T02:27:06.641Z,24.5
2017-09-29T02:28:08.061Z,24.5
2017-09-29T02:29:09.484Z,24.5
2017-09-29T02:30:10.904Z,24.4
2017-09-29T02:31:12.321Z,24.4
2017-09-29T02:32:13.739Z,24.4
2017-09-29T02:33:15.165Z,24.5
2017-09-29T02:34:16.584Z,24.5
2017-09-29T02:35:18.026Z,24.5
2017-09-29T02:36:19.444Z,24.4
2017-09-29T02:37:20.865Z,24.4
2017-09-29T02:38:22.290Z,24.4
2017-09-29T02:39:23.701Z,24.5
2017-09-29T02:40:25.124Z,24.5
2017-09-29T02:41:26.537Z,24.5
2017-09-29T02:42:27.955Z,24.5
2017-09-29T02:43:29.371Z,24.5
2017-09-29T02:44:30.785Z,24.4
2017-09-29T02:45:32.206Z,24.5
2017-09-29T02:46:33.623Z,24.4
2017-09-29T02:47:35.041Z,24.4
2017-09-29T02:48:36.459Z,24.5
2017-09-29T02:49:37.876Z,24.4
2017-09-29T02:50:39.294Z,24.4
2017-09-29T02:51:40.725Z,24.3
2017-09-29T02:52:42.134Z,24.5
2017-09-29T02:53:43.551Z,24.5
2017-09-29T02:54:44.969Z,24.4
2017-09-29T02:55:46.392Z,24.4
2017-09-29T02:56:47.805Z,24.4
2017-09-29T02:57:49.227Z,24.4
2017-09-29T02:58:50.649Z,24.4
2017-09-29T02:59:52.071Z,24.4
2017-09-29T03:00:53.490Z,24.4
2017-09-29T03:01:54.911Z,24.4
2017-09-29T03:02:56.331Z,24.4
2017-09-29T03:03:57.750Z,24.4
2017-09-29T03:04:59.168Z,24.3
2017-09-29T03:06:00.586Z,24.3
2017-09-29T03:07:01.999Z,24.3
2017-09-29T03:08:03.423Z,24.3
2017-09-29T03:09:04.837Z,24.4
2017-09-29T03:10:06.254Z,24.4
2017-09-29T03:11:07.673Z,24.4
2017-09-29T03:12:09.095Z,24.3
2017-09-29T03:13:10.512Z,24.4
2017-09-29T03:14:11.929Z,24.4
2017-09-29T03:15:13.348Z,24.4
2017-09-29T03:16:14.765Z,24.4
2017-09-29T03:17:16.183Z,24.4
2017-09-29T03:18:17.600Z,24.4
2017-09-29T03:19:19.019Z,24.4
2017-09-29T03:20:20.438Z,24.4
2017-09-29T03:21:21.858Z,24.4
2017-09-29T03:22:23.271Z,24.5
2017-09-29T03:23:24.690Z,24.4
2017-09-29T03:24:26.107Z,24.3
2017-09-29T03:25:27.527Z,24.4
2017-09-29T03:26:28.949Z,24.3
2017-09-29T03:27:30.371Z,24.4
2017-09-29T03:28:31.791Z,24.4
2017-09-29T03:29:33.211Z,24.3
2017-09-29T03:30:34.631Z,24.4
2017-09-29T03:31:36.044Z,24.4
2017-09-29T03:32:37.463Z,24.4
2017-09-29T03:33:38.900Z,24.4
2017-09-29T03:34:40.320Z,24.3
2017-09-29T03:35:41.737Z,24.4
2017-09-29T03:36:43.155Z,24.4
2017-09-29T03:37:44.573Z,24.3
2017-09-29T03:38:45.996Z,24.3
2017-09-29T03:39:47.412Z,24.3
2017-09-29T03:40:48.831Z,24.4
2017-09-29T03:41:50.252Z,24.3
2017-09-29T03:42:51.677Z,24.3
2017-09-29T03:43:53.090Z,24.3
2017-09-29T03:44:54.507Z,24.3
2017-09-29T03:45:55.929Z,24.4
2017-09-29T03:46:57.348Z,24.3
2017-09-29T03:47:58.767Z,24.4
2017-09-29T03:49:00.184Z,24.4
2017-09-29T03:50:01.603Z,24.3
2017-09-29T03:51:03.022Z,24.3
2017-09-29T03:52:04.436Z,24.4
2017-09-29T03:53:05.855Z,24.3
2017-09-29T03:54:07.274Z,24.4
2017-09-29T03:55:08.694Z,24.4
2017-09-29T03:56:10.109Z,24.3
2017-09-29T03:57:11.532Z,24.3
2017-09-29T03:58:12.945Z,24.3
2017-09-29T03:59:14.360Z,24.3
2017-09-29T04:00:15.778Z,24.3
2017-09-29T04:01:17.194Z,24.4
2017-09-29T04:02:18.611Z,24.4
2017-09-29T04:03:20.028Z,24.4
2017-09-29T04:04:21.446Z,24.4
2017-09-29T04:05:22.860Z,24.3
2017-09-29T04:06:24.282Z,24.3
2017-09-29T04:07:25.698Z,24.4
2017-09-29T04:08:27.114Z,24.3
2017-09-29T04:09:28.532Z,24.4
2017-09-29T04:10:29.951Z,24.4
2017-09-29T04:11:31.369Z,24.4
2017-09-29T04:12:32.787Z,24.3
2017-09-29T04:13:34.206Z,24.4
2017-09-29T04:14:35.625Z,24.4
2017-09-29T04:15:37.043Z,24.4
2017-09-29T04:16:38.461Z,24.4
2017-09-29T04:17:39.883Z,24.3
2017-09-29T04:18:41.301Z,24.4
2017-09-29T04:19:42.728Z,24.2
2017-09-29T04:20:44.147Z,24.4
2017-09-29T04:21:45.564Z,24.4
2017-09-29T04:22:46.981Z,24.3
2017-09-29T04:23:48.398Z,24.4
2017-09-29T04:24:49.817Z,24.3
2017-09-29T04:25:51.237Z,24.2
2017-09-29T04:26:52.654Z,24.3
2017-09-29T04:27:54.073Z,24.3
2017-09-29T04:28:55.491Z,24.3
2017-09-29T04:29:56.906Z,24.3
2017-09-29T04:30:58.325Z,24.3
2017-09-29T04:31:59.741Z,24.3
2017-09-29T04:33:01.160Z,24.3
2017-09-29T04:34:02.582Z,24.3
2017-09-29T04:35:03.997Z,24.3
2017-09-29T04:36:05.417Z,24.4
2017-09-29T04:37:06.835Z,24.3
2017-09-29T04:38:08.253Z,24.3
2017-09-29T04:39:09.673Z,24.3
2017-09-29T04:40:11.094Z,24.3
2017-09-29T04:41:12.514Z,24.4
2017-09-29T04:42:13.940Z,24.3
2017-09-29T04:43:15.357Z,24.4
2017-09-29T04:44:16.776Z,24.3
2017-09-29T04:45:18.197Z,24.4
2017-09-29T04:46:19.614Z,24.3
2017-09-29T04:47:21.030Z,24.3
2017-09-29T04:48:22.449Z,24.3
2017-09-29T04:49:23.866Z,24.4
2017-09-29T04:50:25.283Z,24.2
2017-09-29T04:51:26.700Z,24.3
2017-09-29T04:52:28.127Z,24.2
2017-09-29T04:53:29.539Z,24.3
2017-09-29T04:54:30.957Z,24.2
2017-09-29T04:55:32.373Z,24.3
2017-09-29T04:56:33.792Z,24.3
2017-09-29T04:57:35.211Z,24.3
2017-09-29T04:58:36.633Z,24.3
2017-09-29T04:59:38.054Z,24.3
2017-09-29T05:00:39.471Z,24.3
2017-09-29T05:01:40.890Z,24.2
2017-09-29T05:02:42.311Z,24.3
2017-09-29T05:03:43.724Z,24.2
2017-09-29T05:04:45.141Z,24.3
2017-09-29T05:05:46.563Z,24.3
2017-09-29T05:06:47.979Z,24.2
2017-09-29T05:07:49.397Z,24.3
2017-09-29T05:08:50.813Z,24.3
2017-09-29T05:09:52.240Z,24.3
2017-09-29T05:10:53.659Z,24.3
2017-09-29T05:11:55.078Z,24.3
2017-09-29T05:12:56.493Z,24.3
2017-09-29T05:13:57.913Z,24.3
2017-09-29T05:14:59.327Z,24.2
2017-09-29T05:16:00.747Z,24.3
2017-09-29T05:17:02.165Z,24.2
2017-09-29T05:18:03.583Z,24.3
2017-09-29T05:19:05.000Z,24.2
2017-09-29T05:20:06.418Z,24.2
2017-09-29T05:21:07.837Z,24.2
2017-09-29T05:22:09.254Z,24.2
2017-09-29T05:23:10.672Z,24.2
2017-09-29T05:24:12.094Z,24.2
2017-09-29T05:25:13.511Z,24.2
2017-09-29T05:26:14.928Z,24.3
2017-09-29T05:27:16.346Z,24.2
2017-09-29T05:28:17.767Z,24.2
2017-09-29T05:29:19.184Z,24.3
2017-09-29T05:30:20.610Z,24.2
2017-09-29T05:31:22.034Z,24.2
2017-09-29T05:32:23.450Z,24.3
2017-09-29T05:33:24.869Z,24.2
2017-09-29T05:34:26.288Z,24.2
2017-09-29T05:35:27.703Z,24.2
2017-09-29T05:36:29.121Z,24.2
2017-09-29T05:37:30.539Z,24.2
2017-09-29T05:38:31.956Z,24.2
2017-09-29T05:39:33.373Z,24.2
2017-09-29T05:40:34.791Z,24.2
2017-09-29T05:41:36.209Z,24.2
2017-09-29T05:42:37.628Z,24.2
2017-09-29T05:43:39.046Z,24.1
2017-09-29T05:44:40.462Z,24.2
2017-09-29T05:45:41.881Z,24.2
2017-09-29T05:46:43.299Z,24.2
2017-09-29T05:47:44.723Z,24.2
2017-09-29T05:48:46.140Z,24.2
2017-09-29T05:49:47.558Z,24.2
2017-09-29T05:50:48.975Z,24.2
2017-09-29T05:51:50.397Z,24.2
2017-09-29T05:52:51.815Z,24.2
2017-09-29T05:53:53.232Z,24.2
2017-09-29T05:54:54.649Z,24.2
2017-09-29T05:55:56.066Z,24.2
2017-09-29T05:56:57.491Z,24.1
2017-09-29T05:57:58.911Z,24.2
2017-09-29T05:59:00.331Z,24.2
2017-09-29T06:00:01.747Z,24.2
2017-09-29T06:01:03.165Z,24.1
2017-09-29T06:02:04.583Z,24.2
2017-09-29T06:03:06.005Z,24.2
2017-09-29T06:04:07.423Z,24.2
2017-09-29T06:05:08.883Z,24.2
2017-09-29T06:06:10.304Z,24.2
2017-09-29T06:07:11.717Z,24.2
2017-09-29T06:08:13.150Z,24.1
2017-09-29T06:09:14.567Z,24.2
2017-09-29T06:10:15.987Z,24.2
2017-09-29T06:11:17.407Z,24.2
2017-09-29T06:12:18.825Z,24.2
2017-09-29T06:13:20.245Z,24.2
2017-09-29T06:14:21.664Z,24.2
2017-09-29T06:15:23.084Z,24.2
2017-09-29T06:16:24.502Z,24.2
2017-09-29T06:17:25.924Z,24.2
2017-09-29T06:18:27.343Z,24.2
2017-09-29T06:19:28.755Z,24.2
2017-09-29T06:20:30.190Z,24.2
2017-09-29T06:21:31.606Z,24.2
2017-09-29T06:22:33.025Z,24.2
2017-09-29T06:23:34.445Z,24.2
2017-09-29T06:24:35.864Z,24.2
2017-09-29T06:25:37.285Z,24.2
2017-09-29T06:26:38.707Z,24.2
2017-09-29T06:27:40.123Z,24.2
2017-09-29T06:28:41.542Z,24.2
2017-09-29T06:29:42.959Z,24.2
2017-09-29T06:30:44.377Z,24.2
2017-09-29T06:31:45.796Z,24.1
2017-09-29T06:32:47.212Z,24.2
2017-09-29T06:33:48.635Z,24.2
2017-09-29T06:34:50.059Z,24.3
2017-09-29T06:35:51.473Z,24.1
2017-09-29T06:36:52.894Z,24.2
2017-09-29T06:37:54.315Z,24.1
2017-09-29T06:38:55.734Z,24.2
2017-09-29T06:39:57.152Z,24.2
2017-09-29T06:40:58.571Z,24.2
2017-09-29T06:41:59.988Z,24.2
2017-09-29T06:43:01.408Z,24.2
2017-09-29T06:44:02.816Z,24.2
2017-09-29T06:45:04.247Z,24.2
2017-09-29T06:46:05.692Z,24.2
2017-09-29T06:47:07.137Z,24.2
2017-09-29T06:48:08.555Z,24.2
2017-09-29T06:49:09.980Z,24.2
2017-09-29T06:50:11.398Z,24.1
2017-09-29T06:51:12.817Z,24.1
2017-09-29T06:52:14.247Z,24.2
2017-09-29T06:53:15.666Z,24.2
2017-09-29T06:54:17.082Z,24.2
2017-09-29T06:55:18.514Z,24.2
2017-09-29T06:56:19.933Z,24.2
2017-09-29T06:57:21.373Z,24.3
2017-09-29T06:58:22.790Z,24.2
2017-09-29T06:59:24.210Z,24.1
2017-09-29T07:00:25.628Z,24.2
2017-09-29T07:01:27.046Z,24.2
2017-09-29T07:02:28.494Z,24.2
2017-09-29T07:03:29.913Z,24.2
2017-09-29T07:04:31.334Z,24.2
2017-09-29T07:05:32.756Z,24.2
2017-09-29T07:06:34.169Z,24.2
2017-09-29T07:07:35.590Z,24.2
2017-09-29T07:08:37.011Z,24.2
2017-09-29T07:09:38.428Z,24.2
2017-09-29T07:10:39.848Z,24.2
2017-09-29T07:11:41.268Z,24.2
2017-09-29T07:12:42.692Z,24.2
2017-09-29T07:13:44.122Z,24.2
2017-09-29T07:14:45.539Z,24.2
2017-09-29T07:15:46.955Z,24.2
2017-09-29T07:16:48.373Z,24.3
2017-09-29T07:17:49.793Z,24.2
2017-09-29T07:18:51.209Z,24.2
2017-09-29T07:19:52.629Z,24.2
2017-09-29T07:20:54.048Z,24.2
2017-09-29T07:21:55.465Z,24.2
2017-09-29T07:22:56.884Z,24.2
2017-09-29T07:23:58.301Z,24.2
2017-09-29T07:24:59.727Z,24.2
2017-09-29T07:26:01.144Z,24.2
2017-09-29T07:27:02.565Z,24.2
2017-09-29T07:28:03.985Z,24.2
2017-09-29T07:29:05.403Z,24.2
2017-09-29T07:30:06.822Z,24.2
2017-09-29T07:31:08.243Z,24.1
2017-09-29T07:32:09.667Z,24.2
2017-09-29T07:33:11.088Z,24.2
2017-09-29T07:34:12.506Z,24.2
2017-09-29T07:35:13.926Z,24.2
2017-09-29T07:36:15.348Z,24.2
2017-09-29T07:37:16.769Z,24.3
2017-09-29T07:38:18.187Z,24.3
2017-09-29T07:39:19.611Z,24.3
2017-09-29T07:40:21.028Z,24.3
2017-09-29T07:41:22.446Z,24.2
2017-09-29T07:42:23.872Z,24.3
2017-09-29T07:43:25.290Z,24.3
2017-09-29T07:44:26.706Z,24.3
2017-09-29T07:45:28.130Z,24.3
2017-09-29T07:46:29.546Z,24.2
2017-09-29T07:47:30.966Z,24.2
2017-09-29T07:48:32.381Z,24.2
2017-09-29T07:49:33.800Z,24.3
2017-09-29T07:50:35.221Z,24.3
2017-09-29T07:51:36.647Z,24.3
2017-09-29T07:52:38.066Z,24.3
2017-09-29T07:53:39.489Z,24.3
2017-09-29T07:54:40.914Z,24.2
2017-09-29T07:55:42.334Z,24.3
2017-09-29T07:56:43.769Z,24.2
2017-09-29T07:57:45.185Z,24.3
2017-09-29T07:58:46.607Z,24.3
2017-09-29T07:59:48.028Z,24.3
2017-09-29T08:00:49.449Z,24.3
2017-09-29T08:01:50.870Z,24.3
2017-09-29T08:02:52.312Z,24.3
2017-09-29T08:03:53.765Z,24.3
2017-09-29T08:04:55.153Z,24.3
2017-09-29T08:05:56.567Z,24.3
2017-09-29T08:06:57.990Z,24.3
2017-09-29T08:07:59.417Z,24.3
2017-09-29T08:09:00.835Z,24.3
2017-09-29T08:10:02.283Z,24.3
2017-09-29T08:11:03.672Z,24.3
2017-09-29T08:12:05.090Z,24.3
2017-09-29T08:13:06.508Z,24.3
2017-09-29T08:14:07.926Z,24.4
2017-09-29T08:15:09.345Z,24.3
2017-09-29T08:16:10.766Z,24.3
2017-09-29T08:17:12.184Z,24.4
2017-09-29T08:18:13.603Z,24.3
2017-09-29T08:19:15.033Z,24.3
2017-09-29T08:20:16.450Z,24.3
2017-09-29T08:21:17.869Z,24.4
2017-09-29T08:22:19.289Z,24.3
2017-09-29T08:23:20.708Z,24.3
2017-09-29T08:24:22.131Z,24.4
2017-09-29T08:25:23.549Z,24.4
2017-09-29T08:26:24.965Z,24.3
2017-09-29T08:27:26.385Z,24.4
2017-09-29T08:28:27.808Z,24.4
2017-09-29T08:29:29.222Z,24.4
2017-09-29T08:30:30.649Z,24.3
2017-09-29T08:31:32.059Z,24.3
2017-09-29T08:32:33.478Z,24.3
2017-09-29T08:33:34.898Z,24.3
2017-09-29T08:34:36.347Z,24.3
2017-09-29T08:35:37.739Z,24.3
2017-09-29T08:36:39.172Z,24.4
2017-09-29T08:37:40.585Z,24.3
2017-09-29T08:38:42.024Z,24.4
2017-09-29T08:39:43.446Z,24.4
2017-09-29T08:40:44.876Z,24.3
2017-09-29T08:41:46.287Z,24.4
2017-09-29T08:42:47.709Z,24.3
2017-09-29T08:43:49.130Z,24.3
2017-09-29T08:44:50.551Z,24.3
2017-09-29T08:45:51.970Z,24.4
2017-09-29T08:46:53.386Z,24.4
2017-09-29T08:47:54.809Z,24.4
2017-09-29T08:48:56.225Z,24.4
2017-09-29T08:49:57.645Z,24.3
2017-09-29T08:50:59.062Z,24.3
2017-09-29T08:52:00.485Z,24.3
2017-09-29T08:53:01.909Z,24.4
2017-09-29T08:54:03.327Z,24.4
2017-09-29T08:55:04.746Z,24.4
2017-09-29T08:56:06.169Z,24.4
2017-09-29T08:57:07.587Z,24.4
2017-09-29T08:58:09.009Z,24.5
2017-09-29T08:59:10.438Z,24.4
2017-09-29T09:00:11.850Z,24.4
2017-09-29T09:01:13.271Z,24.5
2017-09-29T09:02:14.689Z,24.5
2017-09-29T09:03:16.115Z,24.3
2017-09-29T09:04:17.538Z,24.4
2017-09-29T09:05:18.961Z,24.4
2017-09-29T09:06:20.384Z,24.5
2017-09-29T09:07:21.816Z,24.5
2017-09-29T09:08:23.239Z,24.5
2017-09-29T09:09:24.661Z,24.5
2017-09-29T09:10:26.075Z,24.5
2017-09-29T09:11:27.496Z,24.5
2017-09-29T09:12:28.916Z,24.5
2017-09-29T09:13:30.335Z,24.6
2017-09-29T09:14:31.762Z,24.5
2017-09-29T09:15:33.185Z,24.5
2017-09-29T09:16:34.607Z,24.5
2017-09-29T09:17:36.039Z,24.5
2017-09-29T09:18:37.455Z,24.6
2017-09-29T09:19:38.874Z,24.5
2017-09-29T09:20:40.299Z,24.5
2017-09-29T09:21:41.714Z,24.5
2017-09-29T09:22:43.136Z,24.6
2017-09-29T09:23:44.563Z,24.5
2017-09-29T09:24:45.985Z,24.5
2017-09-29T09:25:47.406Z,24.5
2017-09-29T09:26:48.831Z,24.5
2017-09-29T09:27:50.250Z,24.6
2017-09-29T09:28:51.672Z,24.5
2017-09-29T09:29:53.092Z,24.5
2017-09-29T09:30:54.513Z,24.5
2017-09-29T09:31:55.929Z,24.5
2017-09-29T09:32:57.351Z,24.5
2017-09-29T09:33:58.772Z,24.5
2017-09-29T09:35:00.189Z,24.6
2017-09-29T09:36:01.601Z,24.5
2017-09-29T09:37:03.022Z,24.5
2017-09-29T09:38:04.453Z,24.5
2017-09-29T09:39:05.872Z,24.5
2017-09-29T09:40:07.295Z,24.5
2017-09-29T09:41:08.720Z,24.6
2017-09-29T09:42:10.141Z,24.5
2017-09-29T09:43:11.572Z,24.5
2017-09-29T09:44:13.050Z,24.6
2017-09-29T09:45:14.475Z,24.6
2017-09-29T09:46:15.895Z,24.7
2017-09-29T09:47:17.318Z,24.5
2017-09-29T09:48:18.734Z,24.5
2017-09-29T09:49:20.156Z,24.5
2017-09-29T09:50:21.574Z,24.6
2017-09-29T09:51:22.995Z,24.5
2017-09-29T09:52:24.419Z,24.6
2017-09-29T09:53:25.840Z,24.7
2017-09-29T09:54:27.272Z,24.6
2017-09-29T09:55:28.683Z,24.7
2017-09-29T09:56:30.104Z,24.6
2017-09-29T09:57:31.524Z,24.6
2017-09-29T09:58:32.947Z,24.6
2017-09-29T09:59:34.367Z,24.7
2017-09-29T10:00:35.790Z,24.7
2017-09-29T10:01:37.285Z,24.7
2017-09-29T10:02:38.710Z,24.7
2017-09-29T10:03:40.140Z,24.8
2017-09-29T10:04:41.566Z,24.7
2017-09-29T10:05:42.986Z,24.6
2017-09-29T10:06:44.409Z,24.7
2017-09-29T10:07:45.832Z,24.7
2017-09-29T10:08:47.255Z,24.7
2017-09-29T10:09:48.673Z,24.6
2017-09-29T10:10:50.096Z,24.7
2017-09-29T10:11:51.521Z,24.6
2017-09-29T10:12:52.943Z,24.6
2017-09-29T10:13:54.364Z,24.7
2017-09-29T10:14:55.786Z,24.7
2017-09-29T10:15:57.207Z,24.7
2017-09-29T10:16:58.630Z,24.7
2017-09-29T10:18:00.052Z,24.7
2017-09-29T10:19:01.473Z,24.7
2017-09-29T10:20:02.893Z,24.7
2017-09-29T10:21:04.315Z,24.6
2017-09-29T10:22:05.749Z,24.7
2017-09-29T10:23:07.173Z,24.7
2017-09-29T10:24:08.670Z,24.8
2017-09-29T10:25:10.094Z,24.7
2017-09-29T10:26:11.517Z,24.8
2017-09-29T10:27:12.940Z,24.7
2017-09-29T10:28:14.364Z,24.7
2017-09-29T10:29:15.786Z,24.7
2017-09-29T10:30:17.207Z,24.7
2017-09-29T10:31:18.628Z,24.8
2017-09-29T10:32:20.048Z,24.8
2017-09-29T10:33:21.480Z,24.7
2017-09-29T10:34:22.901Z,24.8
2017-09-29T10:35:24.325Z,24.8
2017-09-29T10:36:25.747Z,24.8
2017-09-29T10:37:27.168Z,24.8
2017-09-29T10:38:28.592Z,24.9
2017-09-29T10:39:30.013Z,24.8
2017-09-29T10:40:31.435Z,24.8
2017-09-29T10:41:32.862Z,24.8
2017-09-29T10:42:34.287Z,24.9
2017-09-29T10:43:35.712Z,24.9
2017-09-29T10:44:37.132Z,25.0
2017-09-29T10:45:38.553Z,25.0
2017-09-29T10:46:39.963Z,24.9
2017-09-29T10:47:41.397Z,25.0
2017-09-29T10:48:42.820Z,25.0
2017-09-29T10:49:44.246Z,25.0
2017-09-29T10:50:45.667Z,25.0
2017-09-29T10:51:47.089Z,24.9
2017-09-29T10:52:48.504Z,25.0
2017-09-29T10:53:49.935Z,24.9
2017-09-29T10:54:51.357Z,25.0
2017-09-29T10:55:52.777Z,25.1
2017-09-29T10:56:54.199Z,25.1
2017-09-29T10:57:55.620Z,25.0
2017-09-29T10:58:57.045Z,25.0
2017-09-29T10:59:58.467Z,25.0
2017-09-29T11:00:59.935Z,25.0
2017-09-29T11:02:01.332Z,24.9
2017-09-29T11:03:02.754Z,25.0
2017-09-29T11:04:04.175Z,25.0
2017-09-29T11:05:05.597Z,24.9
2017-09-29T11:06:07.018Z,25.0
2017-09-29T11:07:08.441Z,25.0
2017-09-29T11:08:09.865Z,25.0
2017-09-29T11:09:11.287Z,25.0
2017-09-29T11:10:12.709Z,25.1
2017-09-29T11:11:14.131Z,25.1
2017-09-29T11:12:15.556Z,25.1
2017-09-29T11:13:16.985Z,25.1
2017-09-29T11:14:18.405Z,25.1
2017-09-29T11:15:19.833Z,25.1
2017-09-29T11:16:21.252Z,25.2
2017-09-29T11:17:22.676Z,25.1
2017-09-29T11:18:24.097Z,25.2
2017-09-29T11:19:25.517Z,25.1
2017-09-29T11:20:26.939Z,25.1
2017-09-29T11:21:28.363Z,25.2
2017-09-29T11:22:29.786Z,25.2
2017-09-29T11:23:31.211Z,25.3
2017-09-29T11:24:32.634Z,25.2
2017-09-29T11:25:34.054Z,25.2
2017-09-29T11:26:35.476Z,25.3
2017-09-29T11:27:36.898Z,25.3
2017-09-29T11:28:38.330Z,25.3
2017-09-29T11:29:39.751Z,25.3
2017-09-29T11:30:41.175Z,25.3
2017-09-29T11:31:42.600Z,25.3
2017-09-29T11:32:44.049Z,25.3
2017-09-29T11:33:45.470Z,25.3
2017-09-29T11:34:46.895Z,25.3
2017-09-29T11:35:48.318Z,25.2
2017-09-29T11:36:49.742Z,25.3
2017-09-29T11:37:51.164Z,25.3
2017-09-29T11:38:52.588Z,25.3
2017-09-29T11:39:54.012Z,25.4
2017-09-29T11:40:55.432Z,25.3
2017-09-29T11:41:56.856Z,25.5
2017-09-29T11:42:58.277Z,25.4
2017-09-29T11:43:59.702Z,25.4
2017-09-29T11:45:01.127Z,25.5
2017-09-29T11:46:02.553Z,25.5
2017-09-29T11:47:03.979Z,25.5
2017-09-29T11:48:05.406Z,25.5
2017-09-29T11:49:06.824Z,25.5
2017-09-29T11:50:08.258Z,25.5
2017-09-29T11:51:09.680Z,25.5
2017-09-29T11:52:11.105Z,25.5
2017-09-29T11:53:12.529Z,25.5
2017-09-29T11:54:13.952Z,25.5
2017-09-29T11:55:15.373Z,25.5
2017-09-29T11:56:16.796Z,25.5
2017-09-29T11:57:18.222Z,25.6
2017-09-29T11:58:19.645Z,25.5
2017-09-29T11:59:21.063Z,25.6
2017-09-29T12:00:22.488Z,25.6
2017-09-29T12:01:23.917Z,25.6
2017-09-29T12:02:25.330Z,25.5
2017-09-29T12:03:26.758Z,25.6
2017-09-29T12:04:28.182Z,25.6
2017-09-29T12:05:29.603Z,25.6
2017-09-29T12:06:31.028Z,25.6
2017-09-29T12:07:32.451Z,25.7
2017-09-29T12:08:33.872Z,25.6
2017-09-29T12:09:35.298Z,25.6
2017-09-29T12:10:36.719Z,25.6
2017-09-29T12:11:38.141Z,25.6
2017-09-29T12:12:39.563Z,25.8
2017-09-29T12:13:40.988Z,25.7
2017-09-29T12:14:42.411Z,25.7
2017-09-29T12:15:43.838Z,25.7
2017-09-29T12:16:45.260Z,25.7
2017-09-29T12:17:46.684Z,25.8
2017-09-29T12:18:48.103Z,25.8
2017-09-29T12:19:49.525Z,25.8
2017-09-29T12:20:50.954Z,25.8
2017-09-29T12:21:52.373Z,25.8
2017-09-29T12:22:53.798Z,25.8
2017-09-29T12:23:55.219Z,25.7
2017-09-29T12:24:56.644Z,25.8
2017-09-29T12:25:58.068Z,25.7
2017-09-29T12:26:59.500Z,25.8
2017-09-29T12:28:00.924Z,25.7
2017-09-29T12:29:02.346Z,25.8
2017-09-29T12:30:03.772Z,25.8
2017-09-29T12:31:05.193Z,25.8
2017-09-29T12:32:06.622Z,25.8
2017-09-29T12:33:08.039Z,25.8
2017-09-29T12:34:09.465Z,25.8
2017-09-29T12:35:10.888Z,25.8
2017-09-29T12:36:12.321Z,25.8
2017-09-29T12:37:13.743Z,25.8
2017-09-29T12:38:15.165Z,25.8
2017-09-29T12:39:16.598Z,25.9
2017-09-29T12:40:18.017Z,25.9
2017-09-29T12:41:19.445Z,26.0
2017-09-29T12:42:20.873Z,25.9
2017-09-29T12:43:22.286Z,25.9
2017-09-29T12:44:23.709Z,25.9
2017-09-29T12:45:25.134Z,25.9
2017-09-29T12:46:26.557Z,25.9
2017-09-29T12:47:27.986Z,25.9
2017-09-29T12:48:29.414Z,26.0
2017-09-29T12:49:30.836Z,26.0
2017-09-29T12:50:32.257Z,26.0
2017-09-29T12:51:33.683Z,26.0
2017-09-29T12:52:35.104Z,25.9
2017-09-29T12:53:36.530Z,26.0
2017-09-29T12:54:37.954Z,26.0
2017-09-29T12:55:39.412Z,26.0
2017-09-29T12:56:40.831Z,26.0
2017-09-29T12:57:42.253Z,26.0
2017-09-29T12:58:43.814Z,26.0
2017-09-29T12:59:45.246Z,26.0
2017-09-29T13:00:46.670Z,26.0
2017-09-29T13:01:48.093Z,26.0
2017-09-29T13:02:49.516Z,26.0
2017-09-29T13:03:50.945Z,26.0
2017-09-29T13:04:52.370Z,26.0
2017-09-29T13:05:53.791Z,26.0
2017-09-29T13:06:55.217Z,26.2
2017-09-29T13:07:56.640Z,26.1
2017-09-29T13:08:58.064Z,26.2
2017-09-29T13:09:59.486Z,26.1
2017-09-29T13:11:00.907Z,26.0
2017-09-29T13:12:02.330Z,26.1
2017-09-29T13:13:03.755Z,26.2
2017-09-29T13:14:05.176Z,26.1
2017-09-29T13:15:06.602Z,26.1
2017-09-29T13:16:08.025Z,26.0
2017-09-29T13:17:09.448Z,26.1
2017-09-29T13:18:10.872Z,26.2
2017-09-29T13:19:12.295Z,26.2
2017-09-29T13:20:13.722Z,26.3
2017-09-29T13:21:15.144Z,26.3
2017-09-29T13:22:16.567Z,26.2
2017-09-29T13:23:17.991Z,26.3
2017-09-29T13:24:19.416Z,26.3
2017-09-29T13:25:20.838Z,26.3
2017-09-29T13:26:22.257Z,26.3
2017-09-29T13:27:23.682Z,26.4
2017-09-29T13:28:25.105Z,26.4
2017-09-29T13:29:26.528Z,26.4
2017-09-29T13:30:27.951Z,26.4
2017-09-29T13:31:29.377Z,26.4
2017-09-29T13:32:30.797Z,26.4
2017-09-29T13:33:32.214Z,26.5
2017-09-29T13:34:33.642Z,26.4
2017-09-29T13:35:35.075Z,26.5
2017-09-29T13:36:36.500Z,26.5
2017-09-29T13:37:37.922Z,26.5